sensor_id;sensor_type;location;lat;lon;timestamp;temperature;humidity
54429;DHT22;40337;52.978;6.310;2023-06-14T00:01:34;17.20;77.10
54429;DHT22;40337;52.978;6.310;2023-06-14T00:04:01;17.10;77.30
54429;DHT22;40337;52.978;6.310;2023-06-14T00:06:28;17.10;77.60
54429;DHT22;40337;52.978;6.310;2023-06-14T00:08:54;17.00;77.80
54429;DHT22;40337;52.978;6.310;2023-06-14T00:11:20;16.90;78.00
54429;DHT22;40337;52.978;6.310;2023-06-14T00:13:46;16.90;78.30
54429;DHT22;40337;52.978;6.310;2023-06-14T00:16:12;16.90;78.40
54429;DHT22;40337;52.978;6.310;2023-06-14T00:18:38;16.90;78.70
54429;DHT22;40337;52.978;6.310;2023-06-14T00:21:04;16.80;79.10
54429;DHT22;40337;52.978;6.310;2023-06-14T00:23:30;16.80;79.70
54429;DHT22;40337;52.978;6.310;2023-06-14T00:25:56;16.70;79.40
54429;DHT22;40337;52.978;6.310;2023-06-14T00:28:21;16.70;79.80
54429;DHT22;40337;52.978;6.310;2023-06-14T00:30:47;16.60;80.00
54429;DHT22;40337;52.978;6.310;2023-06-14T00:33:13;16.50;80.20
54429;DHT22;40337;52.978;6.310;2023-06-14T00:35:39;16.50;80.50
54429;DHT22;40337;52.978;6.310;2023-06-14T00:38:04;16.50;80.90
54429;DHT22;40337;52.978;6.310;2023-06-14T00:40:30;16.50;81.40
54429;DHT22;40337;52.978;6.310;2023-06-14T00:42:56;16.50;81.70
54429;DHT22;40337;52.978;6.310;2023-06-14T00:45:21;16.40;81.90
54429;DHT22;40337;52.978;6.310;2023-06-14T00:47:47;16.40;82.40
54429;DHT22;40337;52.978;6.310;2023-06-14T00:50:14;16.40;82.50
54429;DHT22;40337;52.978;6.310;2023-06-14T00:52:39;16.40;82.70
54429;DHT22;40337;52.978;6.310;2023-06-14T00:55:06;16.40;82.80
54429;DHT22;40337;52.978;6.310;2023-06-14T00:57:32;16.30;83.60
54429;DHT22;40337;52.978;6.310;2023-06-14T00:59:57;16.30;83.20
54429;DHT22;40337;52.978;6.310;2023-06-14T01:02:23;16.30;83.80
54429;DHT22;40337;52.978;6.310;2023-06-14T01:04:50;16.30;83.80
54429;DHT22;40337;52.978;6.310;2023-06-14T01:10:20;16.20;84.80
54429;DHT22;40337;52.978;6.310;2023-06-14T01:13:02;16.10;85.40
54429;DHT22;40337;52.978;6.310;2023-06-14T01:15:30;16.10;86.00
54429;DHT22;40337;52.978;6.310;2023-06-14T01:17:57;16.10;86.10
54429;DHT22;40337;52.978;6.310;2023-06-14T01:20:32;16.10;86.60
54429;DHT22;40337;52.978;6.310;2023-06-14T01:22:58;16.00;87.30
54429;DHT22;40337;52.978;6.310;2023-06-14T01:25:24;16.00;87.90
54429;DHT22;40337;52.978;6.310;2023-06-14T01:27:53;15.90;88.50
54429;DHT22;40337;52.978;6.310;2023-06-14T01:30:21;15.90;89.50
54429;DHT22;40337;52.978;6.310;2023-06-14T01:32:49;15.80;90.10
54429;DHT22;40337;52.978;6.310;2023-06-14T01:35:16;15.70;90.40
54429;DHT22;40337;52.978;6.310;2023-06-14T01:37:42;15.70;90.80
54429;DHT22;40337;52.978;6.310;2023-06-14T01:40:09;15.70;91.10
54429;DHT22;40337;52.978;6.310;2023-06-14T01:42:37;15.70;91.30
54429;DHT22;40337;52.978;6.310;2023-06-14T01:45:04;15.70;91.30
54429;DHT22;40337;52.978;6.310;2023-06-14T01:47:31;15.70;91.60
54429;DHT22;40337;52.978;6.310;2023-06-14T01:49:58;15.60;91.80
54429;DHT22;40337;52.978;6.310;2023-06-14T01:52:23;15.60;92.00
54429;DHT22;40337;52.978;6.310;2023-06-14T01:54:50;15.50;92.20
54429;DHT22;40337;52.978;6.310;2023-06-14T01:57:15;15.50;92.60
54429;DHT22;40337;52.978;6.310;2023-06-14T01:59:41;15.50;92.80
54429;DHT22;40337;52.978;6.310;2023-06-14T02:02:07;15.40;93.00
54429;DHT22;40337;52.978;6.310;2023-06-14T02:04:33;15.40;93.30
54429;DHT22;40337;52.978;6.310;2023-06-14T02:06:59;15.40;93.60
54429;DHT22;40337;52.978;6.310;2023-06-14T02:09:25;15.40;93.90
54429;DHT22;40337;52.978;6.310;2023-06-14T02:11:50;15.30;94.10
54429;DHT22;40337;52.978;6.310;2023-06-14T02:14:16;15.30;94.20
54429;DHT22;40337;52.978;6.310;2023-06-14T02:16:43;15.30;94.50
54429;DHT22;40337;52.978;6.310;2023-06-14T02:19:15;15.30;94.70
54429;DHT22;40337;52.978;6.310;2023-06-14T02:21:41;15.30;94.80
54429;DHT22;40337;52.978;6.310;2023-06-14T02:24:07;15.30;95.00
54429;DHT22;40337;52.978;6.310;2023-06-14T02:26:32;15.30;95.30
54429;DHT22;40337;52.978;6.310;2023-06-14T02:28:58;15.30;95.50
54429;DHT22;40337;52.978;6.310;2023-06-14T02:31:24;15.20;95.70
54429;DHT22;40337;52.978;6.310;2023-06-14T02:33:49;15.20;95.90
54429;DHT22;40337;52.978;6.310;2023-06-14T02:36:15;15.20;96.10
54429;DHT22;40337;52.978;6.310;2023-06-14T02:38:40;15.10;96.30
54429;DHT22;40337;52.978;6.310;2023-06-14T02:41:06;15.10;96.50
54429;DHT22;40337;52.978;6.310;2023-06-14T02:43:32;15.10;96.60
54429;DHT22;40337;52.978;6.310;2023-06-14T02:45:57;15.10;96.80
54429;DHT22;40337;52.978;6.310;2023-06-14T02:48:23;15.10;96.80
54429;DHT22;40337;52.978;6.310;2023-06-14T02:50:48;15.10;97.00
54429;DHT22;40337;52.978;6.310;2023-06-14T02:53:14;15.10;97.00
54429;DHT22;40337;52.978;6.310;2023-06-14T02:55:40;15.10;97.10
54429;DHT22;40337;52.978;6.310;2023-06-14T02:58:06;15.10;97.20
54429;DHT22;40337;52.978;6.310;2023-06-14T03:00:31;15.10;97.30
54429;DHT22;40337;52.978;6.310;2023-06-14T03:02:57;15.10;97.50
54429;DHT22;40337;52.978;6.310;2023-06-14T03:05:27;15.00;97.70
54429;DHT22;40337;52.978;6.310;2023-06-14T03:07:53;15.00;98.00
54429;DHT22;40337;52.978;6.310;2023-06-14T03:10:19;15.00;98.00
54429;DHT22;40337;52.978;6.310;2023-06-14T03:12:45;15.00;98.00
54429;DHT22;40337;52.978;6.310;2023-06-14T03:15:10;15.00;98.10
54429;DHT22;40337;52.978;6.310;2023-06-14T03:17:38;15.00;98.30
54429;DHT22;40337;52.978;6.310;2023-06-14T03:20:04;15.00;98.50
54429;DHT22;40337;52.978;6.310;2023-06-14T03:22:30;15.00;98.70
54429;DHT22;40337;52.978;6.310;2023-06-14T03:24:58;15.00;98.70
54429;DHT22;40337;52.978;6.310;2023-06-14T03:27:24;15.00;98.80
54429;DHT22;40337;52.978;6.310;2023-06-14T03:29:51;15.00;99.00
54429;DHT22;40337;52.978;6.310;2023-06-14T03:32:16;15.00;99.10
54429;DHT22;40337;52.978;6.310;2023-06-14T03:34:42;14.90;99.30
54429;DHT22;40337;52.978;6.310;2023-06-14T03:37:08;14.90;99.40
54429;DHT22;40337;52.978;6.310;2023-06-14T03:39:33;14.90;99.60
54429;DHT22;40337;52.978;6.310;2023-06-14T03:41:59;14.90;99.80
54429;DHT22;40337;52.978;6.310;2023-06-14T03:44:26;14.80;99.90
54429;DHT22;40337;52.978;6.310;2023-06-14T03:46:52;14.80;99.90
54429;DHT22;40337;52.978;6.310;2023-06-14T03:49:18;14.80;99.90
54429;DHT22;40337;52.978;6.310;2023-06-14T03:51:44;14.80;99.90
54429;DHT22;40337;52.978;6.310;2023-06-14T03:54:10;14.80;99.90
54429;DHT22;40337;52.978;6.310;2023-06-14T03:56:35;14.80;99.90
54429;DHT22;40337;52.978;6.310;2023-06-14T03:59:01;14.80;99.90
54429;DHT22;40337;52.978;6.310;2023-06-14T04:01:27;14.80;99.90
54429;DHT22;40337;52.978;6.310;2023-06-14T04:03:56;14.80;99.90
54429;DHT22;40337;52.978;6.310;2023-06-14T04:06:22;14.80;99.90
54429;DHT22;40337;52.978;6.310;2023-06-14T04:08:51;14.80;99.90
54429;DHT22;40337;52.978;6.310;2023-06-14T04:11:17;14.80;99.90
54429;DHT22;40337;52.978;6.310;2023-06-14T04:13:44;14.70;99.90
54429;DHT22;40337;52.978;6.310;2023-06-14T04:16:10;14.80;99.90
54429;DHT22;40337;52.978;6.310;2023-06-14T04:18:35;14.80;99.90
54429;DHT22;40337;52.978;6.310;2023-06-14T04:21:01;14.80;99.90
54429;DHT22;40337;52.978;6.310;2023-06-14T04:23:26;14.80;99.90
54429;DHT22;40337;52.978;6.310;2023-06-14T04:25:53;14.80;99.90
54429;DHT22;40337;52.978;6.310;2023-06-14T04:28:19;14.80;99.90
54429;DHT22;40337;52.978;6.310;2023-06-14T04:30:45;14.80;99.90
54429;DHT22;40337;52.978;6.310;2023-06-14T04:33:12;14.80;99.90
54429;DHT22;40337;52.978;6.310;2023-06-14T04:35:39;14.80;99.90
54429;DHT22;40337;52.978;6.310;2023-06-14T04:38:06;14.80;99.90
54429;DHT22;40337;52.978;6.310;2023-06-14T04:40:35;14.90;99.90
54429;DHT22;40337;52.978;6.310;2023-06-14T04:43:08;15.00;99.90
54429;DHT22;40337;52.978;6.310;2023-06-14T04:45:34;15.00;99.90
54429;DHT22;40337;52.978;6.310;2023-06-14T04:47:59;15.00;99.90
54429;DHT22;40337;52.978;6.310;2023-06-14T04:50:25;15.00;99.90
54429;DHT22;40337;52.978;6.310;2023-06-14T04:52:52;15.10;99.90
54429;DHT22;40337;52.978;6.310;2023-06-14T04:55:18;15.20;99.90
54429;DHT22;40337;52.978;6.310;2023-06-14T04:57:45;15.20;99.90
54429;DHT22;40337;52.978;6.310;2023-06-14T05:00:11;15.20;99.90
54429;DHT22;40337;52.978;6.310;2023-06-14T05:02:37;15.30;99.90
54429;DHT22;40337;52.978;6.310;2023-06-14T05:05:03;15.30;99.90
54429;DHT22;40337;52.978;6.310;2023-06-14T05:07:33;15.30;99.90
54429;DHT22;40337;52.978;6.310;2023-06-14T05:10:01;15.40;99.90
54429;DHT22;40337;52.978;6.310;2023-06-14T05:12:27;15.40;99.90
54429;DHT22;40337;52.978;6.310;2023-06-14T05:14:54;15.50;99.90
54429;DHT22;40337;52.978;6.310;2023-06-14T05:17:20;15.50;99.90
54429;DHT22;40337;52.978;6.310;2023-06-14T05:19:46;15.60;99.90
54429;DHT22;40337;52.978;6.310;2023-06-14T05:22:11;15.70;99.90
54429;DHT22;40337;52.978;6.310;2023-06-14T05:24:37;15.70;99.90
54429;DHT22;40337;52.978;6.310;2023-06-14T05:27:03;15.80;99.90
54429;DHT22;40337;52.978;6.310;2023-06-14T05:29:28;15.80;99.90
54429;DHT22;40337;52.978;6.310;2023-06-14T05:31:54;15.90;99.90
54429;DHT22;40337;52.978;6.310;2023-06-14T05:34:19;16.00;99.90
54429;DHT22;40337;52.978;6.310;2023-06-14T05:36:45;16.00;99.90
54429;DHT22;40337;52.978;6.310;2023-06-14T05:39:11;16.10;99.90
54429;DHT22;40337;52.978;6.310;2023-06-14T05:41:36;16.10;99.90
54429;DHT22;40337;52.978;6.310;2023-06-14T05:44:02;16.10;99.90
54429;DHT22;40337;52.978;6.310;2023-06-14T05:46:27;16.10;99.90
54429;DHT22;40337;52.978;6.310;2023-06-14T05:48:54;16.20;99.90
54429;DHT22;40337;52.978;6.310;2023-06-14T05:51:20;16.30;99.90
54429;DHT22;40337;52.978;6.310;2023-06-14T05:53:49;16.30;99.90
54429;DHT22;40337;52.978;6.310;2023-06-14T05:56:15;16.50;99.90
54429;DHT22;40337;52.978;6.310;2023-06-14T05:58:43;16.50;99.90
54429;DHT22;40337;52.978;6.310;2023-06-14T06:01:08;16.60;99.90
54429;DHT22;40337;52.978;6.310;2023-06-14T06:03:34;16.80;99.90
54429;DHT22;40337;52.978;6.310;2023-06-14T06:05:59;17.00;99.90
54429;DHT22;40337;52.978;6.310;2023-06-14T06:08:26;17.40;99.90
54429;DHT22;40337;52.978;6.310;2023-06-14T06:10:52;17.70;99.90
54429;DHT22;40337;52.978;6.310;2023-06-14T06:13:18;18.10;99.40
54429;DHT22;40337;52.978;6.310;2023-06-14T06:15:44;18.50;98.90
54429;DHT22;40337;52.978;6.310;2023-06-14T06:18:09;18.90;97.70
54429;DHT22;40337;52.978;6.310;2023-06-14T06:20:35;19.30;96.50
54429;DHT22;40337;52.978;6.310;2023-06-14T06:23:02;19.60;95.40
54429;DHT22;40337;52.978;6.310;2023-06-14T06:25:28;19.90;94.90
54429;DHT22;40337;52.978;6.310;2023-06-14T06:27:54;20.20;93.90
54429;DHT22;40337;52.978;6.310;2023-06-14T06:30:22;20.40;93.00
54429;DHT22;40337;52.978;6.310;2023-06-14T06:32:47;20.70;93.10
54429;DHT22;40337;52.978;6.310;2023-06-14T06:35:14;20.90;92.40
54429;DHT22;40337;52.978;6.310;2023-06-14T06:37:41;21.00;92.40
54429;DHT22;40337;52.978;6.310;2023-06-14T06:40:07;21.10;91.80
54429;DHT22;40337;52.978;6.310;2023-06-14T06:42:34;21.30;91.40
54429;DHT22;40337;52.978;6.310;2023-06-14T06:45:00;21.60;91.10
54429;DHT22;40337;52.978;6.310;2023-06-14T06:47:26;21.70;90.70
54429;DHT22;40337;52.978;6.310;2023-06-14T06:49:51;22.00;90.80
54429;DHT22;40337;52.978;6.310;2023-06-14T06:52:17;22.10;90.20
54429;DHT22;40337;52.978;6.310;2023-06-14T06:54:42;22.20;89.50
54429;DHT22;40337;52.978;6.310;2023-06-14T06:57:08;22.40;90.10
54429;DHT22;40337;52.978;6.310;2023-06-14T06:59:35;22.60;89.20
54429;DHT22;40337;52.978;6.310;2023-06-14T07:02:01;22.70;87.20
54429;DHT22;40337;52.978;6.310;2023-06-14T07:04:26;22.90;87.60
54429;DHT22;40337;52.978;6.310;2023-06-14T07:06:52;23.10;85.90
54429;DHT22;40337;52.978;6.310;2023-06-14T07:09:17;23.20;84.40
54429;DHT22;40337;52.978;6.310;2023-06-14T07:11:46;23.40;84.60
54429;DHT22;40337;52.978;6.310;2023-06-14T07:14:11;23.40;83.00
54429;DHT22;40337;52.978;6.310;2023-06-14T07:16:37;23.60;82.90
54429;DHT22;40337;52.978;6.310;2023-06-14T07:19:03;23.70;82.90
54429;DHT22;40337;52.978;6.310;2023-06-14T07:21:29;23.70;81.50
54429;DHT22;40337;52.978;6.310;2023-06-14T07:23:55;23.80;81.00
54429;DHT22;40337;52.978;6.310;2023-06-14T07:26:21;23.80;80.30
54429;DHT22;40337;52.978;6.310;2023-06-14T07:28:48;24.00;79.50
54429;DHT22;40337;52.978;6.310;2023-06-14T07:31:16;24.30;79.10
54429;DHT22;40337;52.978;6.310;2023-06-14T07:33:42;24.50;79.70
54429;DHT22;40337;52.978;6.310;2023-06-14T07:36:08;24.50;78.70
54429;DHT22;40337;52.978;6.310;2023-06-14T07:38:33;24.70;78.10
54429;DHT22;40337;52.978;6.310;2023-06-14T07:40:59;24.70;77.80
54429;DHT22;40337;52.978;6.310;2023-06-14T07:43:25;24.80;77.00
54429;DHT22;40337;52.978;6.310;2023-06-14T07:45:51;25.00;76.40
54429;DHT22;40337;52.978;6.310;2023-06-14T07:48:16;25.10;76.00
54429;DHT22;40337;52.978;6.310;2023-06-14T07:50:42;25.20;75.70
54429;DHT22;40337;52.978;6.310;2023-06-14T07:53:08;25.40;75.70
54429;DHT22;40337;52.978;6.310;2023-06-14T07:55:33;25.30;74.40
54429;DHT22;40337;52.978;6.310;2023-06-14T07:58:02;25.40;73.80
54429;DHT22;40337;52.978;6.310;2023-06-14T08:00:28;25.40;73.80
54429;DHT22;40337;52.978;6.310;2023-06-14T08:02:53;25.60;74.40
54429;DHT22;40337;52.978;6.310;2023-06-14T08:05:24;25.70;74.40
54429;DHT22;40337;52.978;6.310;2023-06-14T08:07:50;26.00;73.60
54429;DHT22;40337;52.978;6.310;2023-06-14T08:10:15;26.00;72.70
54429;DHT22;40337;52.978;6.310;2023-06-14T08:12:41;26.20;72.20
54429;DHT22;40337;52.978;6.310;2023-06-14T08:15:06;26.30;71.00
54429;DHT22;40337;52.978;6.310;2023-06-14T08:17:33;26.30;70.90
54429;DHT22;40337;52.978;6.310;2023-06-14T08:19:58;26.40;70.60
54429;DHT22;40337;52.978;6.310;2023-06-14T08:22:24;26.50;69.40
54429;DHT22;40337;52.978;6.310;2023-06-14T08:24:51;26.60;68.90
54429;DHT22;40337;52.978;6.310;2023-06-14T08:27:18;26.60;67.30
54429;DHT22;40337;52.978;6.310;2023-06-14T08:29:44;26.50;67.80
54429;DHT22;40337;52.978;6.310;2023-06-14T08:32:10;26.70;68.30
54429;DHT22;40337;52.978;6.310;2023-06-14T08:34:35;26.80;67.70
54429;DHT22;40337;52.978;6.310;2023-06-14T08:37:01;26.80;67.40
54429;DHT22;40337;52.978;6.310;2023-06-14T08:39:27;27.00;67.70
54429;DHT22;40337;52.978;6.310;2023-06-14T08:41:53;27.10;66.90
54429;DHT22;40337;52.978;6.310;2023-06-14T08:44:19;27.30;67.20
54429;DHT22;40337;52.978;6.310;2023-06-14T08:46:47;27.30;67.00
54429;DHT22;40337;52.978;6.310;2023-06-14T08:49:13;27.40;66.30
54429;DHT22;40337;52.978;6.310;2023-06-14T08:51:43;27.50;64.80
54429;DHT22;40337;52.978;6.310;2023-06-14T08:54:10;27.80;64.80
54429;DHT22;40337;52.978;6.310;2023-06-14T08:56:37;27.80;64.60
54429;DHT22;40337;52.978;6.310;2023-06-14T08:59:03;28.00;64.90
54429;DHT22;40337;52.978;6.310;2023-06-14T09:01:33;28.10;64.70
54429;DHT22;40337;52.978;6.310;2023-06-14T09:04:00;28.10;63.30
54429;DHT22;40337;52.978;6.310;2023-06-14T09:06:25;28.10;63.10
54429;DHT22;40337;52.978;6.310;2023-06-14T09:08:54;28.10;61.50
54429;DHT22;40337;52.978;6.310;2023-06-14T09:11:20;28.30;61.30
54429;DHT22;40337;52.978;6.310;2023-06-14T09:13:46;28.50;61.70
54429;DHT22;40337;52.978;6.310;2023-06-14T09:16:12;28.40;61.60
54429;DHT22;40337;52.978;6.310;2023-06-14T09:18:39;28.40;60.90
54429;DHT22;40337;52.978;6.310;2023-06-14T09:21:08;28.60;62.10
54429;DHT22;40337;52.978;6.310;2023-06-14T09:23:45;28.60;59.90
54429;DHT22;40337;52.978;6.310;2023-06-14T09:26:13;28.60;60.00
54429;DHT22;40337;52.978;6.310;2023-06-14T09:28:46;28.60;59.70
54429;DHT22;40337;52.978;6.310;2023-06-14T09:31:20;28.70;59.50
54429;DHT22;40337;52.978;6.310;2023-06-14T09:33:48;28.70;58.40
54429;DHT22;40337;52.978;6.310;2023-06-14T09:36:25;28.90;59.50
54429;DHT22;40337;52.978;6.310;2023-06-14T09:38:58;29.10;59.40
54429;DHT22;40337;52.978;6.310;2023-06-14T09:41:32;29.20;58.30
54429;DHT22;40337;52.978;6.310;2023-06-14T09:43:59;29.10;58.90
54429;DHT22;40337;52.978;6.310;2023-06-14T09:46:29;29.30;59.10
54429;DHT22;40337;52.978;6.310;2023-06-14T09:48:55;29.30;57.90
54429;DHT22;40337;52.978;6.310;2023-06-14T09:51:23;29.40;57.70
54429;DHT22;40337;52.978;6.310;2023-06-14T09:53:49;29.30;57.10
54429;DHT22;40337;52.978;6.310;2023-06-14T09:56:40;29.30;57.80
54429;DHT22;40337;52.978;6.310;2023-06-14T09:59:08;29.30;55.80
54429;DHT22;40337;52.978;6.310;2023-06-14T10:01:35;29.30;57.60
54429;DHT22;40337;52.978;6.310;2023-06-14T10:04:06;29.60;57.60
54429;DHT22;40337;52.978;6.310;2023-06-14T10:06:36;29.80;56.80
54429;DHT22;40337;52.978;6.310;2023-06-14T10:09:04;29.80;55.90
54429;DHT22;40337;52.978;6.310;2023-06-14T10:11:31;29.90;56.30
54429;DHT22;40337;52.978;6.310;2023-06-14T10:13:58;29.80;56.30
54429;DHT22;40337;52.978;6.310;2023-06-14T10:21:33;29.90;57.20
54429;DHT22;40337;52.978;6.310;2023-06-14T10:24:05;29.90;56.20
54429;DHT22;40337;52.978;6.310;2023-06-14T10:26:32;29.80;54.80
54429;DHT22;40337;52.978;6.310;2023-06-14T10:29:07;30.00;55.80
54429;DHT22;40337;52.978;6.310;2023-06-14T10:31:43;29.90;55.50
54429;DHT22;40337;52.978;6.310;2023-06-14T10:34:10;30.00;55.80
54429;DHT22;40337;52.978;6.310;2023-06-14T10:36:36;30.10;56.50
54429;DHT22;40337;52.978;6.310;2023-06-14T10:39:09;30.30;55.80
54429;DHT22;40337;52.978;6.310;2023-06-14T10:41:37;30.60;54.80
54429;DHT22;40337;52.978;6.310;2023-06-14T10:46:39;30.70;54.40
54429;DHT22;40337;52.978;6.310;2023-06-14T10:49:05;30.80;54.40
54429;DHT22;40337;52.978;6.310;2023-06-14T10:51:51;30.70;54.10
54429;DHT22;40337;52.978;6.310;2023-06-14T10:54:20;30.80;54.50
54429;DHT22;40337;52.978;6.310;2023-06-14T10:59:13;30.80;53.90
54429;DHT22;40337;52.978;6.310;2023-06-14T11:01:57;30.80;53.00
54429;DHT22;40337;52.978;6.310;2023-06-14T11:04:46;30.80;52.60
54429;DHT22;40337;52.978;6.310;2023-06-14T11:07:55;31.00;53.40
54429;DHT22;40337;52.978;6.310;2023-06-14T11:10:36;31.10;53.60
54429;DHT22;40337;52.978;6.310;2023-06-14T11:13:03;31.00;52.30
54429;DHT22;40337;52.978;6.310;2023-06-14T11:15:30;30.90;52.40
54429;DHT22;40337;52.978;6.310;2023-06-14T11:18:03;31.00;52.50
54429;DHT22;40337;52.978;6.310;2023-06-14T11:20:31;31.10;51.50
54429;DHT22;40337;52.978;6.310;2023-06-14T11:22:57;31.20;51.70
54429;DHT22;40337;52.978;6.310;2023-06-14T11:25:24;31.20;51.00
54429;DHT22;40337;52.978;6.310;2023-06-14T11:27:50;30.90;50.70
54429;DHT22;40337;52.978;6.310;2023-06-14T11:30:17;31.20;51.40
54429;DHT22;40337;52.978;6.310;2023-06-14T11:32:45;31.50;51.10
54429;DHT22;40337;52.978;6.310;2023-06-14T11:35:11;31.40;51.30
54429;DHT22;40337;52.978;6.310;2023-06-14T11:37:37;31.40;52.10
54429;DHT22;40337;52.978;6.310;2023-06-14T11:40:04;31.50;52.20
54429;DHT22;40337;52.978;6.310;2023-06-14T11:42:35;31.60;50.70
54429;DHT22;40337;52.978;6.310;2023-06-14T11:45:01;31.30;51.00
54429;DHT22;40337;52.978;6.310;2023-06-14T11:47:32;31.10;49.70
54429;DHT22;40337;52.978;6.310;2023-06-14T11:49:59;31.00;50.10
54429;DHT22;40337;52.978;6.310;2023-06-14T11:52:25;31.00;50.50
54429;DHT22;40337;52.978;6.310;2023-06-14T11:54:51;31.20;50.90
54429;DHT22;40337;52.978;6.310;2023-06-14T11:57:20;30.90;50.20
54429;DHT22;40337;52.978;6.310;2023-06-14T11:59:46;31.10;50.50
54429;DHT22;40337;52.978;6.310;2023-06-14T12:02:15;31.20;51.00
54429;DHT22;40337;52.978;6.310;2023-06-14T12:04:42;31.20;51.30
54429;DHT22;40337;52.978;6.310;2023-06-14T12:07:15;31.20;51.60
54429;DHT22;40337;52.978;6.310;2023-06-14T12:12:28;31.00;50.60
54429;DHT22;40337;52.978;6.310;2023-06-14T12:14:57;31.00;52.00
54429;DHT22;40337;52.978;6.310;2023-06-14T12:17:22;31.00;51.60
54429;DHT22;40337;52.978;6.310;2023-06-14T12:19:49;30.80;50.50
54429;DHT22;40337;52.978;6.310;2023-06-14T12:22:16;30.80;51.10
54429;DHT22;40337;52.978;6.310;2023-06-14T12:24:45;30.90;50.60
54429;DHT22;40337;52.978;6.310;2023-06-14T12:27:11;30.90;50.90
54429;DHT22;40337;52.978;6.310;2023-06-14T12:29:41;30.80;51.10
54429;DHT22;40337;52.978;6.310;2023-06-14T12:32:09;31.00;51.60
54429;DHT22;40337;52.978;6.310;2023-06-14T12:34:34;31.00;51.40
54429;DHT22;40337;52.978;6.310;2023-06-14T12:37:01;31.00;50.90
54429;DHT22;40337;52.978;6.310;2023-06-14T12:39:29;31.00;51.10
54429;DHT22;40337;52.978;6.310;2023-06-14T12:41:59;31.20;50.90
54429;DHT22;40337;52.978;6.310;2023-06-14T12:44:24;31.20;51.20
54429;DHT22;40337;52.978;6.310;2023-06-14T12:46:50;31.60;51.00
54429;DHT22;40337;52.978;6.310;2023-06-14T12:49:18;31.40;50.10
54429;DHT22;40337;52.978;6.310;2023-06-14T12:51:45;31.20;50.60
54429;DHT22;40337;52.978;6.310;2023-06-14T12:54:10;31.20;50.70
54429;DHT22;40337;52.978;6.310;2023-06-14T12:56:37;30.90;50.50
54429;DHT22;40337;52.978;6.310;2023-06-14T12:59:03;30.80;50.60
54429;DHT22;40337;52.978;6.310;2023-06-14T13:01:28;30.80;50.90
54429;DHT22;40337;52.978;6.310;2023-06-14T13:03:54;30.90;51.40
54429;DHT22;40337;52.978;6.310;2023-06-14T13:06:23;30.90;50.10
54429;DHT22;40337;52.978;6.310;2023-06-14T13:08:48;31.10;50.20
54429;DHT22;40337;52.978;6.310;2023-06-14T13:11:14;31.10;50.60
54429;DHT22;40337;52.978;6.310;2023-06-14T13:13:40;31.10;50.00
54429;DHT22;40337;52.978;6.310;2023-06-14T13:16:05;31.20;50.40
54429;DHT22;40337;52.978;6.310;2023-06-14T13:18:31;31.00;50.60
54429;DHT22;40337;52.978;6.310;2023-06-14T13:20:57;30.90;50.70
54429;DHT22;40337;52.978;6.310;2023-06-14T13:23:22;30.90;50.20
54429;DHT22;40337;52.978;6.310;2023-06-14T13:25:48;30.80;50.10
54429;DHT22;40337;52.978;6.310;2023-06-14T13:28:15;30.90;50.60
54429;DHT22;40337;52.978;6.310;2023-06-14T13:30:41;30.60;50.30
54429;DHT22;40337;52.978;6.310;2023-06-14T13:33:06;30.70;50.30
54429;DHT22;40337;52.978;6.310;2023-06-14T13:35:32;30.70;50.70
54429;DHT22;40337;52.978;6.310;2023-06-14T13:37:58;30.80;49.70
54429;DHT22;40337;52.978;6.310;2023-06-14T13:40:23;30.70;50.10
54429;DHT22;40337;52.978;6.310;2023-06-14T13:42:49;30.60;49.70
54429;DHT22;40337;52.978;6.310;2023-06-14T13:45:15;30.90;50.10
54429;DHT22;40337;52.978;6.310;2023-06-14T13:47:41;30.90;49.40
54429;DHT22;40337;52.978;6.310;2023-06-14T13:50:07;31.00;49.10
54429;DHT22;40337;52.978;6.310;2023-06-14T13:52:32;31.00;49.20
54429;DHT22;40337;52.978;6.310;2023-06-14T13:54:58;31.00;49.20
54429;DHT22;40337;52.978;6.310;2023-06-14T13:57:24;30.70;49.60
54429;DHT22;40337;52.978;6.310;2023-06-14T13:59:49;30.60;49.80
54429;DHT22;40337;52.978;6.310;2023-06-14T14:02:15;30.80;49.60
54429;DHT22;40337;52.978;6.310;2023-06-14T14:04:41;30.80;49.20
54429;DHT22;40337;52.978;6.310;2023-06-14T14:07:07;30.80;49.10
54429;DHT22;40337;52.978;6.310;2023-06-14T14:09:33;30.60;49.80
54429;DHT22;40337;52.978;6.310;2023-06-14T14:12:03;30.30;50.50
54429;DHT22;40337;52.978;6.310;2023-06-14T14:14:30;30.20;50.80
54429;DHT22;40337;52.978;6.310;2023-06-14T14:16:55;30.30;50.80
54429;DHT22;40337;52.978;6.310;2023-06-14T14:19:21;30.60;50.90
54429;DHT22;40337;52.978;6.310;2023-06-14T14:21:47;30.80;50.80
54429;DHT22;40337;52.978;6.310;2023-06-14T14:24:13;30.90;50.50
54429;DHT22;40337;52.978;6.310;2023-06-14T14:26:39;31.10;50.80
54429;DHT22;40337;52.978;6.310;2023-06-14T14:29:05;30.70;50.10
54429;DHT22;40337;52.978;6.310;2023-06-14T14:31:31;30.20;49.90
54429;DHT22;40337;52.978;6.310;2023-06-14T14:33:57;29.70;50.60
54429;DHT22;40337;52.978;6.310;2023-06-14T14:36:22;29.60;51.10
54429;DHT22;40337;52.978;6.310;2023-06-14T14:38:48;29.80;52.10
54429;DHT22;40337;52.978;6.310;2023-06-14T14:41:13;29.70;51.50
54429;DHT22;40337;52.978;6.310;2023-06-14T14:43:39;29.90;51.60
54429;DHT22;40337;52.978;6.310;2023-06-14T14:46:05;29.70;50.40
54429;DHT22;40337;52.978;6.310;2023-06-14T14:48:30;29.50;50.40
54429;DHT22;40337;52.978;6.310;2023-06-14T14:50:56;29.10;51.20
54429;DHT22;40337;52.978;6.310;2023-06-14T14:53:22;28.70;51.30
54429;DHT22;40337;52.978;6.310;2023-06-14T14:55:47;28.70;53.10
54429;DHT22;40337;52.978;6.310;2023-06-14T14:58:13;29.00;52.20
54429;DHT22;40337;52.978;6.310;2023-06-14T15:00:42;29.00;53.70
54429;DHT22;40337;52.978;6.310;2023-06-14T15:03:08;29.10;52.00
54429;DHT22;40337;52.978;6.310;2023-06-14T15:05:33;29.10;52.10
54429;DHT22;40337;52.978;6.310;2023-06-14T15:07:59;29.20;51.70
54429;DHT22;40337;52.978;6.310;2023-06-14T15:10:24;29.20;52.00
54429;DHT22;40337;52.978;6.310;2023-06-14T15:12:50;29.30;51.40
54429;DHT22;40337;52.978;6.310;2023-06-14T15:15:15;29.40;50.60
54429;DHT22;40337;52.978;6.310;2023-06-14T15:17:41;29.70;50.90
54429;DHT22;40337;52.978;6.310;2023-06-14T15:20:07;29.90;50.20
54429;DHT22;40337;52.978;6.310;2023-06-14T15:22:33;29.80;51.10
54429;DHT22;40337;52.978;6.310;2023-06-14T15:24:58;29.60;50.90
54429;DHT22;40337;52.978;6.310;2023-06-14T15:27:24;29.10;51.40
54429;DHT22;40337;52.978;6.310;2023-06-14T15:29:50;28.70;51.40
54429;DHT22;40337;52.978;6.310;2023-06-14T15:32:15;28.30;51.80
54429;DHT22;40337;52.978;6.310;2023-06-14T15:34:41;28.10;52.20
54429;DHT22;40337;52.978;6.310;2023-06-14T15:37:07;28.20;52.40
54429;DHT22;40337;52.978;6.310;2023-06-14T15:39:32;28.30;52.30
54429;DHT22;40337;52.978;6.310;2023-06-14T15:41:59;28.60;52.80
54429;DHT22;40337;52.978;6.310;2023-06-14T15:44:25;29.00;53.40